sensor_id;sensor_type;location;lat;lon;timestamp;P1;durP1;ratioP1;P2;durP2;ratioP2
52057;SDS011;38063;53.210;6.504;2022-08-19T00:00:10;8.95;;;4.93;;
52057;SDS011;38063;53.210;6.504;2022-08-19T00:02:36;7.38;;;4.85;;
52057;SDS011;38063;53.210;6.504;2022-08-19T00:05:02;8.05;;;5.43;;
52057;SDS011;38063;53.210;6.504;2022-08-19T00:07:29;8.10;;;5.72;;
52057;SDS011;38063;53.210;6.504;2022-08-19T00:09:54;9.45;;;5.30;;
52057;SDS011;38063;53.210;6.504;2022-08-19T00:12:21;9.18;;;5.68;;
52057;SDS011;38063;53.210;6.504;2022-08-19T00:14:46;6.88;;;4.55;;
52057;SDS011;38063;53.210;6.504;2022-08-19T00:17:12;8.70;;;5.22;;
52057;SDS011;38063;53.210;6.504;2022-08-19T00:19:38;7.85;;;4.78;;
52057;SDS011;38063;53.210;6.504;2022-08-19T00:22:04;6.80;;;4.70;;
52057;SDS011;38063;53.210;6.504;2022-08-19T00:24:30;9.57;;;5.22;;
52057;SDS011;38063;53.210;6.504;2022-08-19T00:26:56;6.47;;;4.80;;
52057;SDS011;38063;53.210;6.504;2022-08-19T00:29:23;7.25;;;5.50;;
52057;SDS011;38063;53.210;6.504;2022-08-19T00:31:50;6.78;;;5.00;;
52057;SDS011;38063;53.210;6.504;2022-08-19T00:34:20;8.15;;;4.82;;
52057;SDS011;38063;53.210;6.504;2022-08-19T00:36:48;7.97;;;5.35;;
52057;SDS011;38063;53.210;6.504;2022-08-19T00:39:14;9.18;;;5.82;;
52057;SDS011;38063;53.210;6.504;2022-08-19T00:41:41;9.25;;;5.70;;
52057;SDS011;38063;53.210;6.504;2022-08-19T00:44:09;7.63;;;5.30;;
52057;SDS011;38063;53.210;6.504;2022-08-19T00:46:38;8.43;;;5.80;;
52057;SDS011;38063;53.210;6.504;2022-08-19T00:49:10;8.43;;;6.35;;
52057;SDS011;38063;53.210;6.504;2022-08-19T00:51:43;8.13;;;5.68;;
52057;SDS011;38063;53.210;6.504;2022-08-19T00:54:12;9.70;;;5.97;;
52057;SDS011;38063;53.210;6.504;2022-08-19T00:56:38;9.05;;;6.40;;
52057;SDS011;38063;53.210;6.504;2022-08-19T00:59:05;11.60;;;7.22;;
52057;SDS011;38063;53.210;6.504;2022-08-19T01:01:38;11.27;;;7.05;;
52057;SDS011;38063;53.210;6.504;2022-08-19T01:04:06;9.10;;;6.90;;
52057;SDS011;38063;53.210;6.504;2022-08-19T01:06:32;11.90;;;7.43;;
52057;SDS011;38063;53.210;6.504;2022-08-19T01:08:59;12.35;;;7.72;;
52057;SDS011;38063;53.210;6.504;2022-08-19T01:11:25;11.82;;;6.80;;
52057;SDS011;38063;53.210;6.504;2022-08-19T01:13:53;9.75;;;6.97;;
52057;SDS011;38063;53.210;6.504;2022-08-19T01:16:20;12.05;;;7.65;;
52057;SDS011;38063;53.210;6.504;2022-08-19T01:18:48;12.70;;;7.70;;
52057;SDS011;38063;53.210;6.504;2022-08-19T01:21:21;11.65;;;6.63;;
52057;SDS011;38063;53.210;6.504;2022-08-19T01:23:47;8.73;;;6.43;;
52057;SDS011;38063;53.210;6.504;2022-08-19T01:26:14;13.77;;;7.40;;
52057;SDS011;38063;53.210;6.504;2022-08-19T01:28:43;11.80;;;7.10;;
52057;SDS011;38063;53.210;6.504;2022-08-19T01:31:12;8.45;;;6.63;;
52057;SDS011;38063;53.210;6.504;2022-08-19T01:33:40;13.40;;;6.60;;
52057;SDS011;38063;53.210;6.504;2022-08-19T01:36:12;9.80;;;7.22;;
52057;SDS011;38063;53.210;6.504;2022-08-19T01:38:42;15.77;;;7.38;;
52057;SDS011;38063;53.210;6.504;2022-08-19T01:41:08;9.30;;;6.78;;
52057;SDS011;38063;53.210;6.504;2022-08-19T01:43:35;9.80;;;6.82;;
52057;SDS011;38063;53.210;6.504;2022-08-19T01:46:01;10.73;;;7.25;;
52057;SDS011;38063;53.210;6.504;2022-08-19T01:48:32;10.13;;;6.63;;
52057;SDS011;38063;53.210;6.504;2022-08-19T01:50:59;10.60;;;6.38;;
52057;SDS011;38063;53.210;6.504;2022-08-19T01:53:25;12.40;;;6.88;;
52057;SDS011;38063;53.210;6.504;2022-08-19T01:55:50;11.95;;;6.60;;
52057;SDS011;38063;53.210;6.504;2022-08-19T01:58:19;7.82;;;6.63;;
52057;SDS011;38063;53.210;6.504;2022-08-19T02:00:49;12.40;;;6.72;;
52057;SDS011;38063;53.210;6.504;2022-08-19T02:03:15;9.85;;;7.15;;
52057;SDS011;38063;53.210;6.504;2022-08-19T02:05:41;12.45;;;7.47;;
52057;SDS011;38063;53.210;6.504;2022-08-19T02:08:08;10.98;;;7.50;;
52057;SDS011;38063;53.210;6.504;2022-08-19T02:10:37;9.90;;;6.97;;
52057;SDS011;38063;53.210;6.504;2022-08-19T02:13:04;10.63;;;7.35;;
52057;SDS011;38063;53.210;6.504;2022-08-19T02:15:30;11.32;;;7.55;;
52057;SDS011;38063;53.210;6.504;2022-08-19T02:17:57;10.80;;;7.60;;
52057;SDS011;38063;53.210;6.504;2022-08-19T02:20:23;13.48;;;8.23;;
52057;SDS011;38063;53.210;6.504;2022-08-19T02:22:49;13.23;;;8.82;;
52057;SDS011;38063;53.210;6.504;2022-08-19T02:25:14;12.45;;;8.73;;
52057;SDS011;38063;53.210;6.504;2022-08-19T02:27:40;11.30;;;9.02;;
52057;SDS011;38063;53.210;6.504;2022-08-19T02:30:08;13.95;;;8.82;;
52057;SDS011;38063;53.210;6.504;2022-08-19T02:32:37;12.57;;;8.93;;
52057;SDS011;38063;53.210;6.504;2022-08-19T02:35:03;12.07;;;9.00;;
52057;SDS011;38063;53.210;6.504;2022-08-19T02:37:29;11.25;;;8.65;;
52057;SDS011;38063;53.210;6.504;2022-08-19T02:40:14;12.80;;;8.43;;
52057;SDS011;38063;53.210;6.504;2022-08-19T02:42:40;12.07;;;8.55;;
52057;SDS011;38063;53.210;6.504;2022-08-19T02:45:06;14.73;;;9.10;;
52057;SDS011;38063;53.210;6.504;2022-08-19T02:47:32;10.77;;;7.90;;
52057;SDS011;38063;53.210;6.504;2022-08-19T02:50:00;10.15;;;7.90;;
52057;SDS011;38063;53.210;6.504;2022-08-19T02:52:27;11.40;;;7.85;;
52057;SDS011;38063;53.210;6.504;2022-08-19T02:54:53;10.48;;;8.35;;
52057;SDS011;38063;53.210;6.504;2022-08-19T02:57:22;10.98;;;7.70;;
52057;SDS011;38063;53.210;6.504;2022-08-19T02:59:48;11.57;;;7.80;;
52057;SDS011;38063;53.210;6.504;2022-08-19T03:02:14;9.23;;;7.28;;
52057;SDS011;38063;53.210;6.504;2022-08-19T03:04:40;11.00;;;7.70;;
52057;SDS011;38063;53.210;6.504;2022-08-19T03:07:07;12.30;;;8.85;;
52057;SDS011;38063;53.210;6.504;2022-08-19T03:09:33;10.43;;;7.75;;
52057;SDS011;38063;53.210;6.504;2022-08-19T03:12:01;10.27;;;8.30;;
52057;SDS011;38063;53.210;6.504;2022-08-19T03:14:32;13.57;;;8.85;;
52057;SDS011;38063;53.210;6.504;2022-08-19T03:16:58;12.82;;;9.20;;
52057;SDS011;38063;53.210;6.504;2022-08-19T03:19:25;11.13;;;8.02;;
52057;SDS011;38063;53.210;6.504;2022-08-19T03:21:52;12.18;;;8.60;;
52057;SDS011;38063;53.210;6.504;2022-08-19T03:24:18;12.00;;;8.68;;
52057;SDS011;38063;53.210;6.504;2022-08-19T03:26:45;13.95;;;9.40;;
52057;SDS011;38063;53.210;6.504;2022-08-19T03:29:13;11.27;;;9.07;;
52057;SDS011;38063;53.210;6.504;2022-08-19T03:31:39;13.23;;;9.55;;
52057;SDS011;38063;53.210;6.504;2022-08-19T03:34:07;13.98;;;10.05;;
52057;SDS011;38063;53.210;6.504;2022-08-19T03:36:34;14.70;;;10.27;;
52057;SDS011;38063;53.210;6.504;2022-08-19T03:39:00;13.98;;;9.63;;
52057;SDS011;38063;53.210;6.504;2022-08-19T03:41:27;13.95;;;10.02;;
52057;SDS011;38063;53.210;6.504;2022-08-19T03:44:02;14.13;;;10.27;;
52057;SDS011;38063;53.210;6.504;2022-08-19T03:46:30;14.15;;;9.75;;
52057;SDS011;38063;53.210;6.504;2022-08-19T03:48:58;14.38;;;10.90;;
52057;SDS011;38063;53.210;6.504;2022-08-19T03:51:35;12.63;;;9.77;;
52057;SDS011;38063;53.210;6.504;2022-08-19T03:54:03;14.18;;;9.98;;
52057;SDS011;38063;53.210;6.504;2022-08-19T03:56:33;16.38;;;11.27;;
52057;SDS011;38063;53.210;6.504;2022-08-19T03:59:00;15.48;;;10.13;;
52057;SDS011;38063;53.210;6.504;2022-08-19T04:01:28;16.20;;;10.68;;
52057;SDS011;38063;53.210;6.504;2022-08-19T04:03:57;16.48;;;11.00;;
52057;SDS011;38063;53.210;6.504;2022-08-19T04:06:28;16.77;;;10.60;;
52057;SDS011;38063;53.210;6.504;2022-08-19T04:08:56;15.73;;;10.82;;
52057;SDS011;38063;53.210;6.504;2022-08-19T04:11:27;14.60;;;10.55;;
52057;SDS011;38063;53.210;6.504;2022-08-19T04:13:55;13.82;;;10.00;;
52057;SDS011;38063;53.210;6.504;2022-08-19T04:16:22;14.85;;;10.52;;
52057;SDS011;38063;53.210;6.504;2022-08-19T04:18:49;14.38;;;9.82;;
52057;SDS011;38063;53.210;6.504;2022-08-19T04:21:16;15.77;;;10.43;;
52057;SDS011;38063;53.210;6.504;2022-08-19T04:23:46;15.73;;;10.93;;
52057;SDS011;38063;53.210;6.504;2022-08-19T04:26:13;17.33;;;11.15;;
52057;SDS011;38063;53.210;6.504;2022-08-19T04:29:06;15.85;;;11.45;;
52057;SDS011;38063;53.210;6.504;2022-08-19T04:31:34;15.40;;;10.82;;
52057;SDS011;38063;53.210;6.504;2022-08-19T04:34:00;15.52;;;11.20;;
52057;SDS011;38063;53.210;6.504;2022-08-19T04:36:29;15.35;;;10.70;;
52057;SDS011;38063;53.210;6.504;2022-08-19T04:38:57;16.55;;;11.15;;
52057;SDS011;38063;53.210;6.504;2022-08-19T04:41:25;15.57;;;10.60;;
52057;SDS011;38063;53.210;6.504;2022-08-19T04:44:10;13.45;;;9.65;;
52057;SDS011;38063;53.210;6.504;2022-08-19T04:46:36;17.75;;;10.70;;
52057;SDS011;38063;53.210;6.504;2022-08-19T04:49:02;12.93;;;10.20;;
52057;SDS011;38063;53.210;6.504;2022-08-19T04:51:30;17.05;;;10.63;;
52057;SDS011;38063;53.210;6.504;2022-08-19T04:53:57;16.05;;;10.98;;
52057;SDS011;38063;53.210;6.504;2022-08-19T04:56:25;16.25;;;10.38;;
52057;SDS011;38063;53.210;6.504;2022-08-19T04:58:52;16.83;;;10.50;;
52057;SDS011;38063;53.210;6.504;2022-08-19T05:01:27;14.85;;;10.82;;
52057;SDS011;38063;53.210;6.504;2022-08-19T05:03:54;16.65;;;9.93;;
52057;SDS011;38063;53.210;6.504;2022-08-19T05:06:22;16.90;;;10.85;;
52057;SDS011;38063;53.210;6.504;2022-08-19T05:08:48;15.55;;;10.57;;
52057;SDS011;38063;53.210;6.504;2022-08-19T05:11:16;18.05;;;10.93;;
52057;SDS011;38063;53.210;6.504;2022-08-19T05:13:50;18.42;;;11.07;;
52057;SDS011;38063;53.210;6.504;2022-08-19T05:16:18;17.15;;;11.23;;
52057;SDS011;38063;53.210;6.504;2022-08-19T05:18:45;20.85;;;11.25;;
52057;SDS011;38063;53.210;6.504;2022-08-19T05:21:29;19.30;;;11.68;;
52057;SDS011;38063;53.210;6.504;2022-08-19T05:24:14;14.68;;;10.63;;
52057;SDS011;38063;53.210;6.504;2022-08-19T05:26:42;18.30;;;11.95;;
52057;SDS011;38063;53.210;6.504;2022-08-19T05:29:14;18.10;;;11.73;;
52057;SDS011;38063;53.210;6.504;2022-08-19T05:31:41;18.45;;;11.68;;
52057;SDS011;38063;53.210;6.504;2022-08-19T05:34:07;17.80;;;12.25;;
52057;SDS011;38063;53.210;6.504;2022-08-19T05:36:38;18.77;;;11.75;;
52057;SDS011;38063;53.210;6.504;2022-08-19T05:39:06;19.10;;;12.07;;
52057;SDS011;38063;53.210;6.504;2022-08-19T05:41:33;19.75;;;11.35;;
52057;SDS011;38063;53.210;6.504;2022-08-19T05:44:03;20.77;;;12.77;;
52057;SDS011;38063;53.210;6.504;2022-08-19T05:46:31;20.90;;;12.63;;
52057;SDS011;38063;53.210;6.504;2022-08-19T05:48:57;22.42;;;14.00;;
52057;SDS011;38063;53.210;6.504;2022-08-19T05:51:23;23.40;;;13.60;;
52057;SDS011;38063;53.210;6.504;2022-08-19T05:53:50;20.77;;;13.15;;
52057;SDS011;38063;53.210;6.504;2022-08-19T05:56:16;23.17;;;13.43;;
52057;SDS011;38063;53.210;6.504;2022-08-19T05:58:43;23.77;;;13.65;;
52057;SDS011;38063;53.210;6.504;2022-08-19T06:01:17;18.80;;;12.70;;
52057;SDS011;38063;53.210;6.504;2022-08-19T06:03:44;20.05;;;12.77;;
52057;SDS011;38063;53.210;6.504;2022-08-19T06:06:11;16.92;;;11.70;;
52057;SDS011;38063;53.210;6.504;2022-08-19T06:08:38;19.30;;;12.00;;
52057;SDS011;38063;53.210;6.504;2022-08-19T06:11:15;18.52;;;12.13;;
52057;SDS011;38063;53.210;6.504;2022-08-19T06:13:44;18.48;;;12.05;;
52057;SDS011;38063;53.210;6.504;2022-08-19T06:16:12;21.10;;;13.40;;
52057;SDS011;38063;53.210;6.504;2022-08-19T06:18:38;22.77;;;13.55;;
52057;SDS011;38063;53.210;6.504;2022-08-19T06:21:03;20.48;;;13.52;;
52057;SDS011;38063;53.210;6.504;2022-08-19T06:23:29;22.80;;;14.05;;
52057;SDS011;38063;53.210;6.504;2022-08-19T06:25:55;19.48;;;13.20;;
52057;SDS011;38063;53.210;6.504;2022-08-19T06:28:21;21.92;;;14.02;;
52057;SDS011;38063;53.210;6.504;2022-08-19T06:30:48;23.60;;;14.40;;
52057;SDS011;38063;53.210;6.504;2022-08-19T06:33:15;20.60;;;13.32;;
52057;SDS011;38063;53.210;6.504;2022-08-19T06:35:40;20.60;;;13.40;;
52057;SDS011;38063;53.210;6.504;2022-08-19T06:38:06;21.77;;;13.98;;
52057;SDS011;38063;53.210;6.504;2022-08-19T06:40:33;19.20;;;13.13;;
52057;SDS011;38063;53.210;6.504;2022-08-19T06:43:00;19.77;;;12.77;;
52057;SDS011;38063;53.210;6.504;2022-08-19T06:45:27;19.55;;;13.07;;
52057;SDS011;38063;53.210;6.504;2022-08-19T06:47:53;17.13;;;11.88;;
52057;SDS011;38063;53.210;6.504;2022-08-19T06:50:21;16.33;;;11.07;;
52057;SDS011;38063;53.210;6.504;2022-08-19T06:52:50;16.80;;;12.13;;
52057;SDS011;38063;53.210;6.504;2022-08-19T06:55:16;18.33;;;11.80;;
52057;SDS011;38063;53.210;6.504;2022-08-19T06:57:42;16.70;;;12.00;;
52057;SDS011;38063;53.210;6.504;2022-08-19T07:00:08;16.00;;;11.48;;
52057;SDS011;38063;53.210;6.504;2022-08-19T07:02:42;16.73;;;11.50;;
52057;SDS011;38063;53.210;6.504;2022-08-19T07:05:08;17.42;;;10.50;;
52057;SDS011;38063;53.210;6.504;2022-08-19T07:07:34;18.35;;;11.00;;
52057;SDS011;38063;53.210;6.504;2022-08-19T07:10:00;14.27;;;10.52;;
52057;SDS011;38063;53.210;6.504;2022-08-19T07:12:28;13.63;;;9.93;;
52057;SDS011;38063;53.210;6.504;2022-08-19T07:14:57;16.15;;;10.48;;
52057;SDS011;38063;53.210;6.504;2022-08-19T07:17:23;14.15;;;10.55;;
52057;SDS011;38063;53.210;6.504;2022-08-19T07:19:50;12.13;;;9.27;;
52057;SDS011;38063;53.210;6.504;2022-08-19T07:22:15;12.80;;;9.13;;
52057;SDS011;38063;53.210;6.504;2022-08-19T07:24:42;15.88;;;10.07;;
52057;SDS011;38063;53.210;6.504;2022-08-19T07:27:07;14.30;;;10.13;;
52057;SDS011;38063;53.210;6.504;2022-08-19T07:29:35;14.65;;;9.93;;
52057;SDS011;38063;53.210;6.504;2022-08-19T07:32:01;15.43;;;10.45;;
52057;SDS011;38063;53.210;6.504;2022-08-19T07:34:29;14.57;;;10.07;;
52057;SDS011;38063;53.210;6.504;2022-08-19T07:36:55;13.05;;;10.05;;
52057;SDS011;38063;53.210;6.504;2022-08-19T07:39:26;11.82;;;9.10;;
52057;SDS011;38063;53.210;6.504;2022-08-19T07:41:54;11.55;;;10.35;;
52057;SDS011;38063;53.210;6.504;2022-08-19T07:44:21;10.27;;;9.10;;
52057;SDS011;38063;53.210;6.504;2022-08-19T07:46:49;11.65;;;8.93;;
52057;SDS011;38063;53.210;6.504;2022-08-19T07:49:17;13.48;;;8.90;;
52057;SDS011;38063;53.210;6.504;2022-08-19T07:51:45;11.27;;;8.25;;
52057;SDS011;38063;53.210;6.504;2022-08-19T07:54:12;10.68;;;8.77;;
52057;SDS011;38063;53.210;6.504;2022-08-19T07:56:38;10.07;;;8.40;;
52057;SDS011;38063;53.210;6.504;2022-08-19T07:59:04;9.68;;;8.55;;
52057;SDS011;38063;53.210;6.504;2022-08-19T08:01:30;11.07;;;8.65;;
52057;SDS011;38063;53.210;6.504;2022-08-19T08:03:56;11.90;;;8.65;;
52057;SDS011;38063;53.210;6.504;2022-08-19T08:06:41;11.88;;;8.43;;
52057;SDS011;38063;53.210;6.504;2022-08-19T08:09:27;13.17;;;8.83;;
52057;SDS011;38063;53.210;6.504;2022-08-19T08:12:03;9.48;;;7.97;;
52057;SDS011;38063;53.210;6.504;2022-08-19T08:14:33;10.18;;;8.65;;
52057;SDS011;38063;53.210;6.504;2022-08-19T08:17:04;10.55;;;8.90;;
52057;SDS011;38063;53.210;6.504;2022-08-19T08:19:31;11.93;;;9.30;;
52057;SDS011;38063;53.210;6.504;2022-08-19T08:21:58;9.23;;;8.27;;
52057;SDS011;38063;53.210;6.504;2022-08-19T08:24:25;10.38;;;8.80;;
52057;SDS011;38063;53.210;6.504;2022-08-19T08:26:53;12.23;;;10.05;;
52057;SDS011;38063;53.210;6.504;2022-08-19T08:29:19;12.88;;;10.02;;
52057;SDS011;38063;53.210;6.504;2022-08-19T08:31:45;13.77;;;9.88;;
52057;SDS011;38063;53.210;6.504;2022-08-19T08:34:12;10.68;;;9.25;;
52057;SDS011;38063;53.210;6.504;2022-08-19T08:36:39;11.68;;;9.40;;
52057;SDS011;38063;53.210;6.504;2022-08-19T08:39:14;12.15;;;9.77;;
52057;SDS011;38063;53.210;6.504;2022-08-19T08:44:37;11.57;;;9.73;;
52057;SDS011;38063;53.210;6.504;2022-08-19T08:47:11;15.45;;;9.73;;
52057;SDS011;38063;53.210;6.504;2022-08-19T08:49:43;12.23;;;9.63;;
52057;SDS011;38063;53.210;6.504;2022-08-19T08:52:33;11.70;;;10.43;;
52057;SDS011;38063;53.210;6.504;2022-08-19T08:55:07;14.85;;;9.98;;
52057;SDS011;38063;53.210;6.504;2022-08-19T09:00:27;14.52;;;9.85;;
52057;SDS011;38063;53.210;6.504;2022-08-19T09:02:57;11.48;;;9.07;;
52057;SDS011;38063;53.210;6.504;2022-08-19T09:05:26;9.60;;;8.57;;
52057;SDS011;38063;53.210;6.504;2022-08-19T09:08:26;11.80;;;8.55;;
52057;SDS011;38063;53.210;6.504;2022-08-19T09:14:10;10.30;;;9.32;;
52057;SDS011;38063;53.210;6.504;2022-08-19T09:16:57;10.07;;;8.88;;
52057;SDS011;38063;53.210;6.504;2022-08-19T09:19:24;9.98;;;8.88;;
52057;SDS011;38063;53.210;6.504;2022-08-19T09:21:50;11.07;;;8.63;;
52057;SDS011;38063;53.210;6.504;2022-08-19T09:24:16;10.20;;;8.88;;
52057;SDS011;38063;53.210;6.504;2022-08-19T09:26:41;8.93;;;7.70;;
52057;SDS011;38063;53.210;6.504;2022-08-19T09:29:08;9.95;;;7.80;;
52057;SDS011;38063;53.210;6.504;2022-08-19T09:31:34;9.57;;;8.55;;
52057;SDS011;38063;53.210;6.504;2022-08-19T09:34:00;9.75;;;8.13;;
52057;SDS011;38063;53.210;6.504;2022-08-19T09:36:29;10.98;;;8.48;;
52057;SDS011;38063;53.210;6.504;2022-08-19T09:38:57;8.93;;;8.02;;
52057;SDS011;38063;53.210;6.504;2022-08-19T09:41:25;9.63;;;8.73;;
52057;SDS011;38063;53.210;6.504;2022-08-19T09:43:52;10.35;;;9.35;;
52057;SDS011;38063;53.210;6.504;2022-08-19T09:46:21;10.93;;;9.60;;
52057;SDS011;38063;53.210;6.504;2022-08-19T09:48:48;14.35;;;9.73;;
52057;SDS011;38063;53.210;6.504;2022-08-19T09:51:22;10.90;;;8.93;;
52057;SDS011;38063;53.210;6.504;2022-08-19T09:53:51;11.20;;;8.93;;
52057;SDS011;38063;53.210;6.504;2022-08-19T09:56:19;15.40;;;10.02;;
52057;SDS011;38063;53.210;6.504;2022-08-19T09:58:46;9.60;;;8.60;;
52057;SDS011;38063;53.210;6.504;2022-08-19T10:01:16;11.68;;;10.35;;
52057;SDS011;38063;53.210;6.504;2022-08-19T10:03:46;11.40;;;10.20;;
52057;SDS011;38063;53.210;6.504;2022-08-19T10:06:13;13.60;;;9.73;;
52057;SDS011;38063;53.210;6.504;2022-08-19T10:08:38;12.10;;;9.27;;
52057;SDS011;38063;53.210;6.504;2022-08-19T10:11:04;13.23;;;11.18;;
52057;SDS011;38063;53.210;6.504;2022-08-19T10:13:31;13.05;;;11.70;;
52057;SDS011;38063;53.210;6.504;2022-08-19T10:16:06;12.00;;;10.80;;
52057;SDS011;38063;53.210;6.504;2022-08-19T10:18:34;12.85;;;10.27;;
52057;SDS011;38063;53.210;6.504;2022-08-19T10:21:04;14.32;;;10.93;;
52057;SDS011;38063;53.210;6.504;2022-08-19T10:23:36;12.95;;;11.60;;
52057;SDS011;38063;53.210;6.504;2022-08-19T10:26:03;12.60;;;10.27;;
52057;SDS011;38063;53.210;6.504;2022-08-19T10:28:31;14.98;;;11.48;;
52057;SDS011;38063;53.210;6.504;2022-08-19T10:31:07;12.38;;;10.82;;
52057;SDS011;38063;53.210;6.504;2022-08-19T10:33:38;11.17;;;10.00;;
52057;SDS011;38063;53.210;6.504;2022-08-19T10:36:05;13.70;;;11.20;;
52057;SDS011;38063;53.210;6.504;2022-08-19T10:38:36;11.80;;;10.15;;
52057;SDS011;38063;53.210;6.504;2022-08-19T10:41:10;9.82;;;8.57;;
52057;SDS011;38063;53.210;6.504;2022-08-19T10:43:37;11.75;;;9.73;;
52057;SDS011;38063;53.210;6.504;2022-08-19T10:46:06;12.48;;;9.15;;
52057;SDS011;38063;53.210;6.504;2022-08-19T10:48:34;9.65;;;8.48;;
52057;SDS011;38063;53.210;6.504;2022-08-19T10:51:00;11.75;;;9.50;;
52057;SDS011;38063;53.210;6.504;2022-08-19T10:53:45;12.23;;;10.50;;
52057;SDS011;38063;53.210;6.504;2022-08-19T10:56:11;12.20;;;10.40;;
52057;SDS011;38063;53.210;6.504;2022-08-19T10:58:56;11.85;;;10.65;;
52057;SDS011;38063;53.210;6.504;2022-08-19T11:01:22;12.93;;;11.63;;
52057;SDS011;38063;53.210;6.504;2022-08-19T11:03:48;10.95;;;9.77;;
52057;SDS011;38063;53.210;6.504;2022-08-19T11:06:15;12.10;;;10.68;;
52057;SDS011;38063;53.210;6.504;2022-08-19T11:08:40;13.50;;;12.07;;
52057;SDS011;38063;53.210;6.504;2022-08-19T11:11:07;12.68;;;9.98;;
52057;SDS011;38063;53.210;6.504;2022-08-19T11:13:34;11.02;;;9.82;;
52057;SDS011;38063;53.210;6.504;2022-08-19T11:16:12;11.50;;;10.30;;
52057;SDS011;38063;53.210;6.504;2022-08-19T11:18:47;13.18;;;11.60;;
52057;SDS011;38063;53.210;6.504;2022-08-19T11:21:16;16.08;;;14.38;;
52057;SDS011;38063;53.210;6.504;2022-08-19T11:23:45;15.90;;;14.20;;
52057;SDS011;38063;53.210;6.504;2022-08-19T11:26:13;13.88;;;12.48;;
52057;SDS011;38063;53.210;6.504;2022-08-19T11:28:39;13.00;;;11.70;;
52057;SDS011;38063;53.210;6.504;2022-08-19T11:31:09;14.23;;;12.77;;
52057;SDS011;38063;53.210;6.504;2022-08-19T11:36:06;10.55;;;9.45;;
52057;SDS011;38063;53.210;6.504;2022-08-19T11:38:34;10.15;;;9.23;;
52057;SDS011;38063;53.210;6.504;2022-08-19T11:41:02;10.85;;;9.75;;
52057;SDS011;38063;53.210;6.504;2022-08-19T11:43:30;13.32;;;10.52;;
52057;SDS011;38063;53.210;6.504;2022-08-19T11:45:56;13.25;;;10.38;;
52057;SDS011;38063;53.210;6.504;2022-08-19T11:48:23;12.63;;;10.27;;
52057;SDS011;38063;53.210;6.504;2022-08-19T11:50:51;12.55;;;10.48;;
52057;SDS011;38063;53.210;6.504;2022-08-19T11:53:18;12.20;;;10.98;;
52057;SDS011;38063;53.210;6.504;2022-08-19T11:55:45;13.88;;;11.00;;
52057;SDS011;38063;53.210;6.504;2022-08-19T11:58:12;11.52;;;9.25;;
52057;SDS011;38063;53.210;6.504;2022-08-19T12:00:39;9.40;;;8.50;;
52057;SDS011;38063;53.210;6.504;2022-08-19T12:03:05;10.85;;;8.90;;
52057;SDS011;38063;53.210;6.504;2022-08-19T12:05:31;11.68;;;9.43;;
52057;SDS011;38063;53.210;6.504;2022-08-19T12:07:57;9.23;;;7.90;;
52057;SDS011;38063;53.210;6.504;2022-08-19T12:10:23;10.00;;;8.13;;
52057;SDS011;38063;53.210;6.504;2022-08-19T12:12:49;8.85;;;7.97;;
52057;SDS011;38063;53.210;6.504;2022-08-19T12:15:15;9.27;;;7.78;;
52057;SDS011;38063;53.210;6.504;2022-08-19T12:17:41;11.65;;;8.77;;
52057;SDS011;38063;53.210;6.504;2022-08-19T12:20:08;10.43;;;7.47;;
52057;SDS011;38063;53.210;6.504;2022-08-19T12:22:36;10.23;;;8.73;;
52057;SDS011;38063;53.210;6.504;2022-08-19T12:25:03;10.23;;;9.30;;
52057;SDS011;38063;53.210;6.504;2022-08-19T12:27:30;10.70;;;9.32;;
52057;SDS011;38063;53.210;6.504;2022-08-19T12:29:56;12.82;;;8.63;;
52057;SDS011;38063;53.210;6.504;2022-08-19T12:32:22;10.43;;;8.45;;
52057;SDS011;38063;53.210;6.504;2022-08-19T12:34:49;12.13;;;8.02;;
52057;SDS011;38063;53.210;6.504;2022-08-19T12:37:15;11.00;;;8.25;;
52057;SDS011;38063;53.210;6.504;2022-08-19T12:39:42;9.77;;;7.55;;
52057;SDS011;38063;53.210;6.504;2022-08-19T12:42:11;11.88;;;8.18;;
52057;SDS011;38063;53.210;6.504;2022-08-19T12:44:39;8.65;;;6.97;;
52057;SDS011;38063;53.210;6.504;2022-08-19T12:47:06;9.65;;;7.55;;
52057;SDS011;38063;53.210;6.504;2022-08-19T12:49:33;11.38;;;7.88;;
52057;SDS011;38063;53.210;6.504;2022-08-19T12:52:01;8.10;;;7.30;;
52057;SDS011;38063;53.210;6.504;2022-08-19T12:54:28;10.88;;;9.23;;
52057;SDS011;38063;53.210;6.504;2022-08-19T12:56:55;10.48;;;9.38;;
52057;SDS011;38063;53.210;6.504;2022-08-19T12:59:22;12.25;;;10.98;;
52057;SDS011;38063;53.210;6.504;2022-08-19T13:01:48;15.43;;;12.43;;
52057;SDS011;38063;53.210;6.504;2022-08-19T13:04:13;13.32;;;11.85;;
52057;SDS011;38063;53.210;6.504;2022-08-19T13:06:41;13.23;;;11.00;;
52057;SDS011;38063;53.210;6.504;2022-08-19T13:09:07;16.05;;;11.73;;
52057;SDS011;38063;53.210;6.504;2022-08-19T13:11:33;15.13;;;10.68;;
52057;SDS011;38063;53.210;6.504;2022-08-19T13:14:00;14.55;;;11.90;;
52057;SDS011;38063;53.210;6.504;2022-08-19T13:16:27;14.02;;;12.55;;
52057;SDS011;38063;53.210;6.504;2022-08-19T13:18:53;16.92;;;13.02;;
52057;SDS011;38063;53.210;6.504;2022-08-19T13:21:21;20.30;;;12.55;;
52057;SDS011;38063;53.210;6.504;2022-08-19T13:23:50;14.68;;;11.00;;
52057;SDS011;38063;53.210;6.504;2022-08-19T13:26:17;13.38;;;8.88;;
52057;SDS011;38063;53.210;6.504;2022-08-19T13:28:43;12.35;;;9.98;;
52057;SDS011;38063;53.210;6.504;2022-08-19T13:31:30;11.65;;;8.77;;
52057;SDS011;38063;53.210;6.504;2022-08-19T13:34:16;13.18;;;8.88;;
52057;SDS011;38063;53.210;6.504;2022-08-19T13:36:44;9.50;;;7.90;;
52057;SDS011;38063;53.210;6.504;2022-08-19T13:39:10;10.32;;;7.88;;
52057;SDS011;38063;53.210;6.504;2022-08-19T13:41:36;11.38;;;9.00;;
52057;SDS011;38063;53.210;6.504;2022-08-19T13:44:07;12.90;;;9.18;;
52057;SDS011;38063;53.210;6.504;2022-08-19T13:46:33;9.98;;;8.00;;
52057;SDS011;38063;53.210;6.504;2022-08-19T13:48:59;9.48;;;7.47;;
52057;SDS011;38063;53.210;6.504;2022-08-19T13:51:25;8.65;;;7.60;;
52057;SDS011;38063;53.210;6.504;2022-08-19T13:53:50;8.43;;;7.53;;
52057;SDS011;38063;53.210;6.504;2022-08-19T13:56:17;8.15;;;6.65;;
52057;SDS011;38063;53.210;6.504;2022-08-19T13:58:44;11.55;;;6.00;;
52057;SDS011;38063;53.210;6.504;2022-08-19T14:01:11;7.38;;;6.57;;
52057;SDS011;38063;53.210;6.504;2022-08-19T14:03:37;8.77;;;7.00;;
52057;SDS011;38063;53.210;6.504;2022-08-19T14:06:03;8.95;;;7.32;;
52057;SDS011;38063;53.210;6.504;2022-08-19T14:08:29;12.13;;;9.13;;
52057;SDS011;38063;53.210;6.504;2022-08-19T14:10:57;14.25;;;9.35;;
52057;SDS011;38063;53.210;6.504;2022-08-19T14:13:23;15.65;;;10.90;;
52057;SDS011;38063;53.210;6.504;2022-08-19T14:15:49;15.18;;;11.63;;
52057;SDS011;38063;53.210;6.504;2022-08-19T14:18:16;18.55;;;11.30;;
52057;SDS011;38063;53.210;6.504;2022-08-19T14:20:43;17.85;;;11.73;;
52057;SDS011;38063;53.210;6.504;2022-08-19T14:23:09;17.17;;;10.70;;
52057;SDS011;38063;53.210;6.504;2022-08-19T14:25:37;12.35;;;10.35;;
52057;SDS011;38063;53.210;6.504;2022-08-19T14:28:03;15.43;;;10.77;;
52057;SDS011;38063;53.210;6.504;2022-08-19T14:30:32;17.67;;;12.07;;
52057;SDS011;38063;53.210;6.504;2022-08-19T14:33:00;13.52;;;10.85;;
52057;SDS011;38063;53.210;6.504;2022-08-19T14:35:27;18.30;;;12.20;;
52057;SDS011;38063;53.210;6.504;2022-08-19T14:37:54;16.05;;;11.25;;
52057;SDS011;38063;53.210;6.504;2022-08-19T14:40:21;14.80;;;11.38;;
52057;SDS011;38063;53.210;6.504;2022-08-19T14:43:01;17.25;;;11.57;;
52057;SDS011;38063;53.210;6.504;2022-08-19T14:45:34;17.55;;;11.13;;
52057;SDS011;38063;53.210;6.504;2022-08-19T14:48:01;16.98;;;11.18;;